Time;durP1;ratioP1;P1;durP2;ratioP2;P2;SDS_P1;SDS_P2;PMS_P1;PMS_P2;Temp;Humidity;BMP_temperature;BMP_pressure;BME280_temperature;BME280_humidity;BME280_pressure;Samples;Min_cycle;Max_cycle;Signal;HPM_P1;HPM_P2
2022/08/08 00:00:08;;;;;;;0.47;0.47;;;;;;;;;;509132;29;1433;-87
2022/08/08 00:00:28;;;;;;;1.50;0.60;;;;;;;;;;505914;29;1533;-87
2022/08/08 00:00:51;;;;;;;1.90;0.60;;;;;;;;;;504742;29;1301;-87
2022/08/08 00:01:24;;;;;;;2.38;0.52;;;;;;;;;;507781;29;1247;-87
2022/08/08 00:01:45;;;;;;;1.08;0.50;;;;;;;;;;507695;29;1414;-87
2022/08/08 00:02:26;;;;;;;0.98;0.60;;;;;;;;;;508779;29;1387;-87
2022/08/08 00:03:00;;;;;;;1.00;0.60;;;;;;;;;;509803;29;1120;-87
2022/08/08 00:03:28;;;;;;;1.67;0.70;;;;;;;;;;508821;29;1430;-87
2022/08/08 00:03:58;;;;;;;1.30;0.55;;;;;;;;;;505495;29;1515;-87
2022/08/08 00:04:31;;;;;;;0.70;0.55;;;;;;;;;;507644;29;1405;-88
2022/08/08 00:05:10;;;;;;;1.88;0.60;;;;;;;;;;507967;29;1460;-88
2022/08/08 00:05:57;;;;;;;0.68;0.50;;;;;;;;;;502716;29;1540;-88
2022/08/08 00:06:34;;;;;;;1.50;0.80;;;;;;;;;;502015;29;1646;-88
2022/08/08 00:07:17;;;;;;;1.90;0.60;;;;;;;;;;503832;29;1302;-88
2022/08/08 00:07:48;;;;;;;0.88;0.60;;;;;;;;;;511899;29;1307;-87
2022/08/08 00:08:15;;;;;;;0.88;0.60;;;;;;;;;;511205;29;1333;-88
2022/08/08 00:08:39;;;;;;;1.20;0.68;;;;;;;;;;510462;29;1311;-88
2022/08/08 00:09:04;;;;;;;1.13;0.52;;;;;;;;;;510450;29;1317;-88
2022/08/08 00:09:27;;;;;;;1.13;0.63;;;;;;;;;;511183;29;1441;-88
2022/08/08 00:09:54;;;;;;;1.70;0.60;;;;;;;;;;510325;29;1391;-88
2022/08/08 00:10:19;;;;;;;1.17;0.60;;;;;;;;;;510239;29;1536;-88
2022/08/08 00:10:46;;;;;;;1.50;0.68;;;;;;;;;;509046;29;1634;-88
2022/08/08 00:11:07;;;;;;;1.35;0.60;;;;;;;;;;511503;29;1552;-88
2022/08/08 00:11:39;;;;;;;1.00;0.50;;;;;;;;;;509260;29;1516;-88
2022/08/08 00:12:01;;;;;;;1.20;0.50;;;;;;;;;;509403;29;1449;-88
2022/08/08 00:12:24;;;;;;;0.85;0.50;;;;;;;;;;509459;29;1355;-88
2022/08/08 00:12:54;;;;;;;1.40;0.60;;;;;;;;;;507347;29;1435;-88
2022/08/08 00:13:25;;;;;;;1.10;0.63;;;;;;;;;;504021;29;1433;-88
2022/08/08 00:14:02;;;;;;;0.82;0.60;;;;;;;;;;505682;29;1475;-88
2022/08/08 00:14:46;;;;;;;1.38;0.60;;;;;;;;;;506230;29;1344;-88
2022/08/08 00:15:10;;;;;;;0.80;0.50;;;;;;;;;;508594;29;1381;-88
2022/08/08 00:15:30;;;;;;;1.23;0.60;;;;;;;;;;509810;29;1405;-88
2022/08/08 00:15:49;;;;;;;1.83;0.70;;;;;;;;;;509717;29;1449;-88
2022/08/08 00:16:18;;;;;;;1.45;0.60;;;;;;;;;;507449;29;1250;-88
2022/08/08 00:16:42;;;;;;;1.15;0.68;;;;;;;;;;505855;29;1324;-87
2022/08/08 00:17:04;;;;;;;0.70;0.63;;;;;;;;;;507092;29;1364;-88
2022/08/08 00:17:31;;;;;;;1.33;0.65;;;;;;;;;;506374;29;1418;-88
2022/08/08 00:17:57;;;;;;;0.98;0.60;;;;;;;;;;505775;29;1338;-88
2022/08/08 00:18:38;;;;;;;1.63;0.50;;;;;;;;;;505729;29;1322;-88
2022/08/08 00:19:06;;;;;;;1.60;0.63;;;;;;;;;;507670;29;1240;-88
2022/08/08 00:19:28;;;;;;;1.13;0.50;;;;;;;;;;507978;29;1363;-88
2022/08/08 00:19:59;;;;;;;1.50;0.57;;;;;;;;;;508417;29;1242;-88
2022/08/08 00:20:23;;;;;;;1.60;0.60;;;;;;;;;;509240;29;1518;-88
2022/08/08 00:20:43;;;;;;;1.60;0.60;;;;;;;;;;507928;29;1351;-88
2022/08/08 00:21:00;;;;;;;0.98;0.60;;;;;;;;;;507494;29;1375;-88
2022/08/08 00:21:19;;;;;;;0.93;0.60;;;;;;;;;;506105;29;1542;-88
2022/08/08 00:21:55;;;;;;;2.35;0.70;;;;;;;;;;507664;29;1432;-88
2022/08/08 00:22:45;;;;;;;2.50;0.60;;;;;;;;;;508106;29;1451;-87
2022/08/08 00:23:13;;;;;;;0.98;0.60;;;;;;;;;;510900;29;1415;-88
2022/08/08 00:23:46;;;;;;;1.63;0.60;;;;;;;;;;509239;29;1464;-88
2022/08/08 00:24:10;;;;;;;0.93;0.70;;;;;;;;;;510123;29;1363;-88
2022/08/08 00:24:37;;;;;;;1.40;0.70;;;;;;;;;;509798;29;1264;-88
2022/08/08 00:24:57;;;;;;;1.27;0.55;;;;;;;;;;506263;29;1448;-88
2022/08/08 00:25:20;;;;;;;1.90;0.60;;;;;;;;;;503965;29;1357;-87
2022/08/08 00:25:40;;;;;;;1.10;0.68;;;;;;;;;;505891;29;1395;-88
2022/08/08 00:25:58;;;;;;;0.95;0.70;;;;;;;;;;505995;29;830;-88
2022/08/08 00:26:22;;;;;;;1.05;0.63;;;;;;;;;;506288;29;1506;-88
2022/08/08 00:26:48;;;;;;;1.50;0.65;;;;;;;;;;504246;29;1265;-88
2022/08/08 00:27:09;;;;;;;1.17;0.70;;;;;;;;;;504695;29;1444;-88
2022/08/08 00:27:26;;;;;;;1.30;0.60;;;;;;;;;;504595;29;1265;-88
2022/08/08 00:27:42;;;;;;;1.83;0.60;;;;;;;;;;506250;29;1458;-88
2022/08/08 00:28:00;;;;;;;1.95;0.68;;;;;;;;;;505897;29;881;-88
2022/08/08 00:28:18;;;;;;;1.45;0.52;;;;;;;;;;504286;29;1387;-88
2022/08/08 00:28:39;;;;;;;1.55;0.60;;;;;;;;;;505605;29;1372;-88
2022/08/08 00:29:18;;;;;;;1.65;0.70;;;;;;;;;;506332;29;1550;-88
2022/08/08 00:29:51;;;;;;;1.25;0.50;;;;;;;;;;505803;29;1374;-88
2022/08/08 00:30:09;;;;;;;0.82;0.50;;;;;;;;;;506260;29;1239;-88
2022/08/08 00:30:31;;;;;;;1.20;0.60;;;;;;;;;;506504;29;1369;-88
2022/08/08 00:30:52;;;;;;;1.13;0.55;;;;;;;;;;508024;29;1369;-88
2022/08/08 00:31:15;;;;;;;1.90;0.60;;;;;;;;;;506247;29;1329;-88
2022/08/08 00:31:37;;;;;;;1.00;0.50;;;;;;;;;;504320;29;1528;-88
2022/08/08 00:31:58;;;;;;;1.10;0.57;;;;;;;;;;504140;29;1248;-87
2022/08/08 00:32:22;;;;;;;1.80;0.50;;;;;;;;;;504461;29;1197;-88
2022/08/08 00:32:50;;;;;;;1.30;0.50;;;;;;;;;;506388;29;1025;-88
2022/08/08 00:33:16;;;;;;;0.77;0.50;;;;;;;;;;504228;29;1219;-88
2022/08/08 00:33:38;;;;;;;1.58;0.60;;;;;;;;;;506352;29;920;-88
2022/08/08 00:35:09;;;;;;;1.58;0.57;;;;;;;;;;509736;29;1325;-88
2022/08/08 00:35:09;;;;;;;1.20;0.60;;;;;;;;;;513257;28;902;-88
2022/08/08 00:35:28;;;;;;;2.22;0.50;;;;;;;;;;512833;28;1434;-88
2022/08/08 00:35:50;;;;;;;2.42;0.50;;;;;;;;;;512150;29;1419;-88
2022/08/08 00:36:25;;;;;;;1.10;0.60;;;;;;;;;;511978;29;1278;-88
2022/08/08 00:36:47;;;;;;;0.88;0.57;;;;;;;;;;512309;29;911;-89
2022/08/08 00:37:13;;;;;;;1.02;0.50;;;;;;;;;;510669;29;1306;-88
2022/08/08 00:37:48;;;;;;;1.48;0.50;;;;;;;;;;512176;29;909;-88
2022/08/08 00:38:06;;;;;;;1.15;0.50;;;;;;;;;;508526;29;1269;-88
2022/08/08 00:38:47;;;;;;;1.27;0.50;;;;;;;;;;510019;29;1493;-88
2022/08/08 00:39:09;;;;;;;1.23;0.60;;;;;;;;;;508232;29;1258;-88
2022/08/08 00:39:42;;;;;;;1.30;0.60;;;;;;;;;;507027;29;1494;-88
2022/08/08 00:40:23;;;;;;;1.45;0.60;;;;;;;;;;509033;29;1444;-88
2022/08/08 00:41:03;;;;;;;0.85;0.52;;;;;;;;;;507983;29;1441;-86
2022/08/08 00:41:53;;;;;;;1.50;0.50;;;;;;;;;;510056;29;1322;-87
2022/08/08 00:42:27;;;;;;;0.80;0.57;;;;;;;;;;506027;29;1359;-88
2022/08/08 00:42:55;;;;;;;1.48;0.47;;;;;;;;;;507486;29;1357;-88
2022/08/08 00:43:32;;;;;;;1.15;0.50;;;;;;;;;;506845;29;1214;-88
2022/08/08 00:44:06;;;;;;;0.93;0.60;;;;;;;;;;505995;29;1370;-88
2022/08/08 00:44:46;;;;;;;1.10;0.52;;;;;;;;;;508489;29;953;-88
2022/08/08 00:45:16;;;;;;;1.08;0.60;;;;;;;;;;508801;29;1372;-88
2022/08/08 00:45:59;;;;;;;1.15;0.60;;;;;;;;;;508117;29;1439;-88
2022/08/08 00:46:24;;;;;;;1.45;0.60;;;;;;;;;;506122;29;1452;-88
2022/08/08 00:46:56;;;;;;;1.17;0.70;;;;;;;;;;504297;29;1368;-88
2022/08/08 00:47:23;;;;;;;0.90;0.60;;;;;;;;;;502419;29;1005;-88
2022/08/08 00:48:09;;;;;;;0.80;0.50;;;;;;;;;;504097;29;1330;-89
2022/08/08 00:48:47;;;;;;;2.38;0.70;;;;;;;;;;508010;29;933;-88
2022/08/08 00:49:05;;;;;;;1.15;0.60;;;;;;;;;;507973;29;894;-88
2022/08/08 00:49:32;;;;;;;1.30;0.70;;;;;;;;;;507952;29;1267;-88
2022/08/08 00:49:50;;;;;;;1.15;0.50;;;;;;;;;;508087;29;1353;-88
2022/08/08 00:50:21;;;;;;;1.40;0.50;;;;;;;;;;508748;29;1432;-88
2022/08/08 00:50:58;;;;;;;1.20;0.60;;;;;;;;;;510206;29;947;-88
2022/08/08 00:51:34;;;;;;;1.58;0.60;;;;;;;;;;508787;29;1448;-87
2022/08/08 00:52:22;;;;;;;1.38;0.60;;;;;;;;;;510368;29;964;-88
2022/08/08 00:52:41;;;;;;;1.52;0.50;;;;;;;;;;503857;29;1298;-88
2022/08/08 00:53:33;;;;;;;1.05;0.52;;;;;;;;;;504122;29;1259;-88
2022/08/08 00:53:58;;;;;;;1.05;0.70;;;;;;;;;;503508;29;1326;-87
2022/08/08 00:54:42;;;;;;;0.88;0.50;;;;;;;;;;504918;29;1400;-87
2022/08/08 00:55:12;;;;;;;0.80;0.60;;;;;;;;;;507905;29;869;-88
2022/08/08 00:55:45;;;;;;;1.38;0.70;;;;;;;;;;508234;29;960;-88
2022/08/08 00:56:19;;;;;;;1.10;0.60;;;;;;;;;;509790;29;1337;-88
2022/08/08 00:56:52;;;;;;;1.30;0.60;;;;;;;;;;510029;29;1279;-88
2022/08/08 00:57:20;;;;;;;0.70;0.60;;;;;;;;;;511975;29;1515;-88
2022/08/08 00:58:14;;;;;;;1.52;0.60;;;;;;;;;;510629;29;1245;-88
2022/08/08 00:59:24;;;;;;;1.10;0.60;;;;;;;;;;509235;29;1429;-88
2022/08/08 01:00:05;;;;;;;2.10;0.60;;;;;;;;;;504144;29;1372;-88
2022/08/08 01:00:22;;;;;;;1.80;0.65;;;;;;;;;;502503;29;1473;-88
2022/08/08 01:00:50;;;;;;;1.40;0.60;;;;;;;;;;504232;29;1455;-89
2022/08/08 01:01:18;;;;;;;1.38;0.60;;;;;;;;;;506159;29;1270;-86
2022/08/08 01:01:48;;;;;;;1.02;0.60;;;;;;;;;;506308;29;800;-87
2022/08/08 01:02:30;;;;;;;1.23;0.63;;;;;;;;;;505958;29;1269;-87
2022/08/08 01:03:22;;;;;;;1.55;0.60;;;;;;;;;;508012;29;1327;-86
2022/08/08 01:03:59;;;;;;;1.80;0.68;;;;;;;;;;504285;29;1274;-87
2022/08/08 01:04:36;;;;;;;1.13;0.70;;;;;;;;;;506167;29;818;-88
2022/08/08 01:05:29;;;;;;;1.40;0.60;;;;;;;;;;509673;29;869;-87
2022/08/08 01:06:15;;;;;;;0.70;0.60;;;;;;;;;;510028;29;1455;-87
2022/08/08 01:06:36;;;;;;;1.95;0.60;;;;;;;;;;509914;29;874;-88
2022/08/08 01:07:10;;;;;;;1.75;0.60;;;;;;;;;;508725;29;1888;-87
2022/08/08 01:07:46;;;;;;;1.10;0.60;;;;;;;;;;508476;29;1341;-87
2022/08/08 01:08:38;;;;;;;2.25;0.70;;;;;;;;;;511826;29;1484;-87
2022/08/08 01:09:03;;;;;;;1.20;0.70;;;;;;;;;;511480;29;1411;-87
2022/08/08 01:09:54;;;;;;;1.40;0.70;;;;;;;;;;509143;29;1408;-87
2022/08/08 01:10:25;;;;;;;1.47;0.60;;;;;;;;;;505918;29;1242;-87
2022/08/08 01:10:55;;;;;;;2.20;0.50;;;;;;;;;;505946;29;826;-87
2022/08/08 01:11:25;;;;;;;0.77;0.60;;;;;;;;;;508821;29;1401;-87
2022/08/08 01:12:36;;;;;;;0.90;0.55;;;;;;;;;;509912;29;1482;-87
2022/08/08 01:12:51;;;;;;;1.25;0.70;;;;;;;;;;504060;29;1266;-87
2022/08/08 01:13:06;;;;;;;1.10;0.67;;;;;;;;;;504081;29;1267;-87
2022/08/08 01:13:59;;;;;;;1.20;0.60;;;;;;;;;;504285;29;1048;-86
2022/08/08 01:14:51;;;;;;;1.40;0.70;;;;;;;;;;504217;29;1461;-87
2022/08/08 01:15:57;;;;;;;2.65;0.63;;;;;;;;;;504140;29;1425;-87
2022/08/08 01:16:44;;;;;;;1.10;0.60;;;;;;;;;;498162;29;1536;-87
2022/08/08 01:17:17;;;;;;;1.60;0.65;;;;;;;;;;498324;29;972;-87
2022/08/08 01:17:59;;;;;;;0.60;0.50;;;;;;;;;;500285;29;1295;-87
2022/08/08 01:18:48;;;;;;;2.00;0.70;;;;;;;;;;502311;29;953;-87
2022/08/08 01:19:40;;;;;;;0.82;0.50;;;;;;;;;;501926;29;1589;-87
2022/08/08 01:20:14;;;;;;;0.85;0.60;;;;;;;;;;504119;29;1477;-87
2022/08/08 01:20:32;;;;;;;1.02;0.60;;;;;;;;;;503246;29;1064;-88
2022/08/08 01:21:25;;;;;;;0.85;0.60;;;;;;;;;;503972;29;1365;-87
2022/08/08 01:22:02;;;;;;;0.90;0.63;;;;;;;;;;502853;29;1497;-87
2022/08/08 01:22:20;;;;;;;1.58;0.60;;;;;;;;;;500179;29;1229;-87
2022/08/08 01:23:09;;;;;;;0.80;0.50;;;;;;;;;;500260;29;1238;-87
2022/08/08 01:23:58;;;;;;;1.08;0.70;;;;;;;;;;502024;29;1220;-88
2022/08/08 01:24:40;;;;;;;1.30;0.70;;;;;;;;;;505097;29;878;-87
2022/08/08 01:24:56;;;;;;;0.82;0.68;;;;;;;;;;504129;29;1016;-87
2022/08/08 01:26:01;;;;;;;1.23;0.70;;;;;;;;;;503647;29;1521;-87
2022/08/08 01:26:35;;;;;;;1.48;0.60;;;;;;;;;;502125;29;1445;-87
2022/08/08 01:27:14;;;;;;;0.75;0.50;;;;;;;;;;505311;29;940;-87
2022/08/08 01:27:47;;;;;;;0.88;0.60;;;;;;;;;;505964;29;1255;-88
2022/08/08 01:28:27;;;;;;;0.82;0.65;;;;;;;;;;506148;29;901;-88
2022/08/08 01:29:00;;;;;;;1.63;0.70;;;;;;;;;;506002;29;1170;-87
2022/08/08 01:29:43;;;;;;;1.25;0.63;;;;;;;;;;504075;29;1195;-88
2022/08/08 01:30:29;;;;;;;1.35;0.70;;;;;;;;;;504338;29;1044;-88
2022/08/08 01:30:59;;;;;;;1.13;0.60;;;;;;;;;;502067;29;1430;-88
2022/08/08 01:31:45;;;;;;;0.90;0.60;;;;;;;;;;503475;29;1271;-88
2022/08/08 01:32:31;;;;;;;1.35;0.70;;;;;;;;;;505954;29;1002;-88
2022/08/08 01:33:23;;;;;;;1.50;0.70;;;;;;;;;;504616;29;906;-88
2022/08/08 01:34:15;;;;;;;1.35;0.70;;;;;;;;;;504207;29;1004;-88
2022/08/08 01:34:55;;;;;;;1.60;0.60;;;;;;;;;;506038;29;1278;-88
2022/08/08 01:35:32;;;;;;;1.25;0.75;;;;;;;;;;504991;29;1297;-88
2022/08/08 01:36:25;;;;;;;1.10;0.70;;;;;;;;;;505512;29;1534;-87
2022/08/08 01:36:53;;;;;;;1.90;0.60;;;;;;;;;;505942;29;1453;-87
2022/08/08 01:37:26;;;;;;;0.90;0.60;;;;;;;;;;506058;29;1301;-88
2022/08/08 01:37:44;;;;;;;1.50;0.70;;;;;;;;;;505780;29;1367;-87
2022/08/08 01:38:34;;;;;;;1.27;0.77;;;;;;;;;;508094;29;1356;-88
2022/08/08 01:39:01;;;;;;;1.90;0.60;;;;;;;;;;505895;29;1946;-88
2022/08/08 01:39:44;;;;;;;1.73;0.68;;;;;;;;;;505915;29;1337;-88
2022/08/08 01:40:35;;;;;;;1.17;0.60;;;;;;;;;;504348;29;957;-88
2022/08/08 01:41:13;;;;;;;0.70;0.60;;;;;;;;;;500235;29;1452;-87
2022/08/08 01:42:00;;;;;;;1.80;0.70;;;;;;;;;;503723;29;1516;-88
2022/08/08 01:42:43;;;;;;;1.02;0.60;;;;;;;;;;502093;29;1392;-88
2022/08/08 01:43:27;;;;;;;1.30;0.70;;;;;;;;;;504229;29;945;-87
2022/08/08 01:43:48;;;;;;;0.95;0.65;;;;;;;;;;503816;29;1270;-88
2022/08/08 01:44:47;;;;;;;1.13;0.70;;;;;;;;;;504312;29;1067;-88
2022/08/08 01:45:45;;;;;;;1.75;0.57;;;;;;;;;;504639;29;866;-88
2022/08/08 01:46:28;;;;;;;1.50;0.60;;;;;;;;;;503902;29;1274;-88
2022/08/08 01:47:13;;;;;;;1.90;0.70;;;;;;;;;;505513;29;1320;-88
2022/08/08 01:47:59;;;;;;;1.40;0.70;;;;;;;;;;505253;29;1491;-88
2022/08/08 01:48:37;;;;;;;1.00;0.60;;;;;;;;;;506302;29;1286;-88
2022/08/08 01:49:13;;;;;;;1.27;0.68;;;;;;;;;;508060;29;1231;-88
2022/08/08 01:49:38;;;;;;;0.77;0.50;;;;;;;;;;507826;29;1245;-89
2022/08/08 01:50:11;;;;;;;0.90;0.60;;;;;;;;;;508692;29;1547;-88
2022/08/08 01:50:41;;;;;;;1.77;0.70;;;;;;;;;;511993;29;932;-89
2022/08/08 01:51:21;;;;;;;1.00;0.70;;;;;;;;;;509401;29;1405;-88
2022/08/08 01:52:09;;;;;;;0.77;0.60;;;;;;;;;;509248;29;1407;-88
2022/08/08 01:52:53;;;;;;;1.10;0.70;;;;;;;;;;507961;29;1530;-88
2022/08/08 01:53:33;;;;;;;0.90;0.70;;;;;;;;;;508431;29;1463;-87
2022/08/08 01:54:01;;;;;;;1.02;0.70;;;;;;;;;;507935;29;1386;-88
2022/08/08 01:54:33;;;;;;;1.55;0.70;;;;;;;;;;506607;29;1226;-87
2022/08/08 01:55:06;;;;;;;0.88;0.60;;;;;;;;;;507918;29;1355;-88
2022/08/08 01:55:43;;;;;;;0.90;0.63;;;;;;;;;;507995;29;1365;-88
2022/08/08 01:56:09;;;;;;;1.10;0.73;;;;;;;;;;507917;29;865;-88
2022/08/08 01:56:42;;;;;;;1.75;0.80;;;;;;;;;;505525;29;1251;-88
2022/08/08 01:57:14;;;;;;;1.58;0.85;;;;;;;;;;504126;29;1512;-88
2022/08/08 01:57:49;;;;;;;1.65;0.70;;;;;;;;;;506082;29;1314;-87
2022/08/08 01:58:13;;;;;;;1.60;0.70;;;;;;;;;;506905;29;857;-88
2022/08/08 01:58:48;;;;;;;1.38;0.70;;;;;;;;;;508183;29;983;-88
2022/08/08 01:59:33;;;;;;;1.77;0.80;;;;;;;;;;508040;29;1438;-88
2022/08/08 02:00:26;;;;;;;1.55;0.70;;;;;;;;;;513124;28;1238;-88
2022/08/08 02:00:55;;;;;;;1.55;0.73;;;;;;;;;;509352;29;1187;-88
2022/08/08 02:01:23;;;;;;;1.80;0.70;;;;;;;;;;510115;29;854;-88
2022/08/08 02:02:02;;;;;;;0.98;0.60;;;;;;;;;;509974;29;1321;-88
2022/08/08 02:02:50;;;;;;;1.77;0.80;;;;;;;;;;510024;29;1472;-88
2022/08/08 02:03:12;;;;;;;0.95;0.70;;;;;;;;;;502176;29;1340;-88
2022/08/08 02:03:38;;;;;;;1.52;0.70;;;;;;;;;;505671;29;1283;-88
2022/08/08 02:04:18;;;;;;;0.95;0.73;;;;;;;;;;507451;29;1321;-88
2022/08/08 02:04:41;;;;;;;1.20;0.80;;;;;;;;;;508120;29;925;-88
2022/08/08 02:05:04;;;;;;;1.02;0.70;;;;;;;;;;505983;29;1321;-88
2022/08/08 02:05:34;;;;;;;1.30;0.70;;;;;;;;;;505014;29;925;-88
2022/08/08 02:06:20;;;;;;;1.75;0.80;;;;;;;;;;509132;29;860;-88
2022/08/08 02:07:13;;;;;;;0.90;0.70;;;;;;;;;;508761;29;1583;-88
2022/08/08 02:08:07;;;;;;;1.63;0.70;;;;;;;;;;509980;29;1304;-89
2022/08/08 02:08:45;;;;;;;1.95;0.70;;;;;;;;;;507814;29;1511;-89
2022/08/08 02:09:10;;;;;;;1.00;0.70;;;;;;;;;;509811;29;1358;-88
2022/08/08 02:10:03;;;;;;;1.80;0.70;;;;;;;;;;508017;29;1477;-88
2022/08/08 02:10:44;;;;;;;1.05;0.70;;;;;;;;;;507211;29;1369;-87
2022/08/08 02:11:12;;;;;;;1.17;0.73;;;;;;;;;;507736;29;1282;-88
2022/08/08 02:11:27;;;;;;;1.98;0.75;;;;;;;;;;509903;29;920;-88
2022/08/08 02:11:45;;;;;;;0.73;0.67;;;;;;;;;;510055;29;1261;-88
2022/08/08 02:12:07;;;;;;;0.70;0.60;;;;;;;;;;510850;29;1317;-88
2022/08/08 02:12:44;;;;;;;1.60;0.60;;;;;;;;;;511892;29;1270;-88
2022/08/08 02:13:09;;;;;;;0.88;0.60;;;;;;;;;;508000;29;1433;-88
2022/08/08 02:13:35;;;;;;;0.95;0.70;;;;;;;;;;506113;29;1411;-87
2022/08/08 02:14:07;;;;;;;1.00;0.70;;;;;;;;;;506424;29;1346;-87
2022/08/08 02:14:45;;;;;;;1.70;0.70;;;;;;;;;;507942;29;902;-87
2022/08/08 02:15:08;;;;;;;1.15;0.70;;;;;;;;;;509839;29;1279;-87
2022/08/08 02:15:50;;;;;;;1.25;0.80;;;;;;;;;;508006;29;1270;-87
2022/08/08 02:16:17;;;;;;;4.00;0.80;;;;;;;;;;508887;29;1019;-87
2022/08/08 02:16:53;;;;;;;1.48;0.70;;;;;;;;;;508083;29;1550;-87
2022/08/08 02:17:14;;;;;;;1.42;0.73;;;;;;;;;;507990;29;1236;-88
2022/08/08 02:17:39;;;;;;;1.05;0.77;;;;;;;;;;510180;29;1003;-87
2022/08/08 02:18:08;;;;;;;1.10;0.75;;;;;;;;;;507651;29;1187;-88
2022/08/08 02:18:39;;;;;;;2.15;0.90;;;;;;;;;;506465;29;1373;-87
2022/08/08 02:19:12;;;;;;;2.55;0.70;;;;;;;;;;506918;29;1234;-87
2022/08/08 02:20:06;;;;;;;0.85;0.70;;;;;;;;;;506112;29;1413;-87
2022/08/08 02:20:36;;;;;;;1.52;0.80;;;;;;;;;;503273;29;1394;-87
2022/08/08 02:22:32;;;;;;;1.63;0.82;;;;;;;;;;506570;29;1464;-87
2022/08/08 02:23:03;;;;;;;1.90;0.80;;;;;;;;;;511937;29;881;-87
2022/08/08 02:23:26;;;;;;;1.67;0.88;;;;;;;;;;511818;28;1351;-88
2022/08/08 02:24:04;;;;;;;1.08;0.80;;;;;;;;;;509796;29;1330;-87
2022/08/08 02:24:33;;;;;;;1.90;0.80;;;;;;;;;;316038;29;10001005;-87
2022/08/08 02:24:55;;;;;;;1.27;0.73;;;;;;;;;;168530;29;10000867;-88
2022/08/08 02:25:33;;;;;;;1.35;0.70;;;;;;;;;;168289;29;10000372;-87
2022/08/08 02:26:11;;;;;;;1.33;0.77;;;;;;;;;;505980;29;945;-87
2022/08/08 02:26:36;;;;;;;1.80;0.80;;;;;;;;;;508046;29;1265;-87
2022/08/08 02:27:03;;;;;;;1.83;0.90;;;;;;;;;;509789;29;1245;-87
2022/08/08 02:27:38;;;;;;;2.25;0.85;;;;;;;;;;511871;29;1403;-87
2022/08/08 02:27:58;;;;;;;1.70;0.77;;;;;;;;;;507919;29;917;-87
2022/08/08 02:28:37;;;;;;;1.77;0.80;;;;;;;;;;507996;29;1436;-87
2022/08/08 02:28:59;;;;;;;1.30;0.90;;;;;;;;;;508043;29;1049;-87
2022/08/08 02:29:40;;;;;;;1.83;0.82;;;;;;;;;;509214;29;1531;-87
2022/08/08 02:30:07;;;;;;;0.70;0.70;;;;;;;;;;509785;29;912;-88
2022/08/08 02:30:44;;;;;;;2.00;0.80;;;;;;;;;;506015;29;1341;-88
2022/08/08 02:31:10;;;;;;;2.28;0.80;;;;;;;;;;505896;29;1020;-88
2022/08/08 02:31:39;;;;;;;1.88;0.80;;;;;;;;;;508051;29;965;-88
2022/08/08 02:32:12;;;;;;;1.90;0.90;;;;;;;;;;509154;29;1511;-88
2022/08/08 02:32:54;;;;;;;3.75;1.00;;;;;;;;;;509297;29;932;-88
2022/08/08 02:33:35;;;;;;;2.22;0.90;;;;;;;;;;507960;29;980;-87
2022/08/08 02:34:10;;;;;;;1.50;0.80;;;;;;;;;;504251;29;1606;-88
2022/08/08 02:34:45;;;;;;;2.50;0.73;;;;;;;;;;506806;29;934;-88
2022/08/08 02:35:18;;;;;;;2.20;0.85;;;;;;;;;;506379;29;881;-88
2022/08/08 02:35:53;;;;;;;1.02;0.80;;;;;;;;;;505729;29;1329;-88
2022/08/08 02:36:53;;;;;;;1.30;0.80;;;;;;;;;;505926;29;1255;-88
2022/08/08 02:37:18;;;;;;;1.83;0.90;;;;;;;;;;508156;29;756;-87
2022/08/08 02:37:55;;;;;;;1.35;0.90;;;;;;;;;;510000;29;901;-86
2022/08/08 02:38:32;;;;;;;1.55;1.05;;;;;;;;;;509881;29;1368;-87
2022/08/08 02:38:59;;;;;;;1.70;0.80;;;;;;;;;;509700;29;1973;-87
2022/08/08 02:39:39;;;;;;;1.60;1.00;;;;;;;;;;507856;29;1278;-87
2022/08/08 02:40:32;;;;;;;1.75;0.80;;;;;;;;;;509187;29;1338;-88
2022/08/08 02:40:53;;;;;;;2.53;0.88;;;;;;;;;;511836;29;841;-88
2022/08/08 02:41:15;;;;;;;2.00;0.80;;;;;;;;;;508959;29;1368;-89
2022/08/08 02:41:56;;;;;;;1.88;0.80;;;;;;;;;;509828;29;1275;-88
2022/08/08 02:42:20;;;;;;;1.77;0.80;;;;;;;;;;509861;29;1249;-88
2022/08/08 02:42:44;;;;;;;1.42;0.90;;;;;;;;;;506153;29;1272;-88
2022/08/08 02:43:42;;;;;;;1.83;0.80;;;;;;;;;;506080;29;1403;-87
2022/08/08 02:44:12;;;;;;;1.42;0.80;;;;;;;;;;500028;29;1363;-87
2022/08/08 02:45:01;;;;;;;2.13;0.82;;;;;;;;;;500845;29;913;-88
2022/08/08 02:45:40;;;;;;;1.27;0.80;;;;;;;;;;508369;29;1521;-88
2022/08/08 02:46:02;;;;;;;1.73;0.70;;;;;;;;;;505763;29;1352;-87
2022/08/08 02:46:34;;;;;;;1.42;0.88;;;;;;;;;;506567;29;908;-88
2022/08/08 02:47:03;;;;;;;1.90;0.88;;;;;;;;;;507894;29;1389;-88
2022/08/08 02:47:56;;;;;;;2.60;1.05;;;;;;;;;;507891;29;967;-88
2022/08/08 02:48:23;;;;;;;3.05;0.98;;;;;;;;;;508169;29;947;-88
2022/08/08 02:49:06;;;;;;;1.88;0.90;;;;;;;;;;507776;29;1299;-88
2022/08/08 02:49:46;;;;;;;2.00;0.90;;;;;;;;;;507490;29;1555;-88
2022/08/08 02:50:22;;;;;;;1.83;0.90;;;;;;;;;;511411;29;1269;-88
2022/08/08 02:51:05;;;;;;;1.15;0.90;;;;;;;;;;507960;29;1367;-88
2022/08/08 02:51:36;;;;;;;2.75;1.00;;;;;;;;;;506416;29;1344;-87
2022/08/08 02:52:29;;;;;;;1.23;0.85;;;;;;;;;;506006;29;1038;-88
2022/08/08 02:52:47;;;;;;;1.45;0.90;;;;;;;;;;508136;29;1229;-87
2022/08/08 02:53:23;;;;;;;1.45;0.90;;;;;;;;;;511799;29;1327;-86
2022/08/08 02:53:44;;;;;;;1.80;1.00;;;;;;;;;;512195;29;1509;-87
2022/08/08 02:54:21;;;;;;;1.95;1.05;;;;;;;;;;510379;29;1254;-87
2022/08/08 02:54:45;;;;;;;1.92;0.90;;;;;;;;;;512016;29;924;-87
2022/08/08 02:55:18;;;;;;;1.25;0.90;;;;;;;;;;508379;29;897;-87
2022/08/08 02:56:07;;;;;;;1.98;0.90;;;;;;;;;;506914;29;1319;-87
2022/08/08 02:56:47;;;;;;;1.75;0.90;;;;;;;;;;507841;29;1434;-87
2022/08/08 02:57:36;;;;;;;2.03;1.00;;;;;;;;;;510830;29;904;-89
2022/08/08 02:58:29;;;;;;;1.58;1.00;;;;;;;;;;509611;29;1479;-86
2022/08/08 02:59:03;;;;;;;1.95;0.80;;;;;;;;;;509232;29;1922;-86
2022/08/08 02:59:56;;;;;;;1.58;0.98;;;;;;;;;;507990;29;1481;-88
2022/08/08 03:00:45;;;;;;;2.28;0.90;;;;;;;;;;506065;29;1482;-88
2022/08/08 03:01:25;;;;;;;1.45;0.80;;;;;;;;;;498015;29;1292;-88
2022/08/08 03:01:58;;;;;;;2.90;1.00;;;;;;;;;;508002;29;1274;-88
2022/08/08 03:02:52;;;;;;;2.00;0.88;;;;;;;;;;510100;29;1028;-88
2022/08/08 03:03:29;;;;;;;2.40;0.90;;;;;;;;;;511162;29;1428;-87
2022/08/08 03:04:17;;;;;;;1.85;0.88;;;;;;;;;;507976;29;1440;-86
2022/08/08 03:04:42;;;;;;;1.58;0.98;;;;;;;;;;508084;29;1381;-87
2022/08/08 03:05:23;;;;;;;1.70;0.90;;;;;;;;;;507652;29;853;-86
2022/08/08 03:05:57;;;;;;;1.40;0.90;;;;;;;;;;504180;29;1333;-87
2022/08/08 03:06:44;;;;;;;1.25;0.90;;;;;;;;;;506125;29;897;-87
2022/08/08 03:07:36;;;;;;;2.88;0.95;;;;;;;;;;495844;29;1388;-86
2022/08/08 03:08:03;;;;;;;1.90;1.00;;;;;;;;;;496448;29;882;-86
2022/08/08 03:09:01;;;;;;;1.20;0.88;;;;;;;;;;498409;29;886;-86
2022/08/08 03:10:04;;;;;;;1.98;0.98;;;;;;;;;;499949;29;1486;-86
2022/08/08 03:11:00;;;;;;;2.80;0.90;;;;;;;;;;503792;29;1363;-87
2022/08/08 03:11:46;;;;;;;2.47;1.10;;;;;;;;;;507501;29;1237;-87
2022/08/08 03:12:20;;;;;;;1.73;1.00;;;;;;;;;;509811;29;925;-87
2022/08/08 03:12:44;;;;;;;2.10;0.90;;;;;;;;;;507990;29;1325;-87
2022/08/08 03:13:18;;;;;;;2.40;0.90;;;;;;;;;;508157;29;999;-88
2022/08/08 03:14:11;;;;;;;1.40;0.90;;;;;;;;;;507840;29;1284;-86
2022/08/08 03:15:20;;;;;;;1.65;0.90;;;;;;;;;;506477;29;949;-87
2022/08/08 03:16:06;;;;;;;1.20;1.00;;;;;;;;;;504082;29;1371;-88
2022/08/08 03:16:30;;;;;;;2.00;1.00;;;;;;;;;;502885;29;1674;-87
2022/08/08 03:16:57;;;;;;;1.20;0.85;;;;;;;;;;502389;29;1381;-88
2022/08/08 03:17:20;;;;;;;1.33;1.00;;;;;;;;;;503992;29;1491;-88
2022/08/08 03:17:54;;;;;;;1.23;1.00;;;;;;;;;;503310;29;1339;-88
2022/08/08 03:18:55;;;;;;;1.73;1.00;;;;;;;;;;503471;29;1653;-87
2022/08/08 03:19:39;;;;;;;1.42;0.80;;;;;;;;;;502816;29;897;-88
2022/08/08 03:20:21;;;;;;;1.38;0.90;;;;;;;;;;500306;29;1415;-88
2022/08/08 03:20:43;;;;;;;1.45;0.90;;;;;;;;;;501839;29;1069;-88
2022/08/08 03:20:59;;;;;;;1.67;1.05;;;;;;;;;;503818;29;1476;-87
2022/08/08 03:21:15;;;;;;;2.13;1.20;;;;;;;;;;502171;29;1504;-87
2022/08/08 03:21:30;;;;;;;1.83;1.00;;;;;;;;;;505544;29;1338;-88
2022/08/08 03:21:45;;;;;;;1.33;0.90;;;;;;;;;;506342;29;1644;-87
2022/08/08 03:22:00;;;;;;;1.30;0.83;;;;;;;;;;505776;29;1148;-88
2022/08/08 03:22:16;;;;;;;1.33;0.87;;;;;;;;;;504118;29;1450;-88
2022/08/08 03:22:32;;;;;;;1.27;1.00;;;;;;;;;;502046;29;1388;-88
2022/08/08 03:22:52;;;;;;;1.10;1.00;;;;;;;;;;507463;29;1385;-87
2022/08/08 03:23:07;;;;;;;1.00;0.90;;;;;;;;;;506080;29;913;-88
2022/08/08 03:23:22;;;;;;;1.37;0.90;;;;;;;;;;506054;29;1228;-88
2022/08/08 03:23:38;;;;;;;2.07;1.00;;;;;;;;;;507898;29;1222;-88
2022/08/08 03:23:53;;;;;;;1.67;1.02;;;;;;;;;;507027;29;1465;-88
2022/08/08 03:24:08;;;;;;;1.40;1.00;;;;;;;;;;507347;29;1463;-88
2022/08/08 03:24:24;;;;;;;1.57;1.10;;;;;;;;;;508029;29;1227;-87
2022/08/08 03:24:39;;;;;;;1.50;1.20;;;;;;;;;;504252;29;1252;-88
2022/08/08 03:24:55;;;;;;;1.23;1.00;;;;;;;;;;507135;29;1215;-87
2022/08/08 03:25:13;;;;;;;1.40;0.80;;;;;;;;;;506116;29;1376;-87
2022/08/08 03:25:30;;;;;;;1.50;0.80;;;;;;;;;;505597;29;845;-88
2022/08/08 03:25:46;;;;;;;1.60;0.85;;;;;;;;;;504124;29;1414;-87
2022/08/08 03:26:02;;;;;;;1.48;0.90;;;;;;;;;;503805;29;1387;-87
2022/08/08 03:26:40;;;;;;;2.60;1.00;;;;;;;;;;506057;29;1337;-87
2022/08/08 03:27:15;;;;;;;1.43;1.00;;;;;;;;;;505852;29;1250;-87
2022/08/08 03:27:52;;;;;;;1.50;1.10;;;;;;;;;;507928;29;1602;-87
2022/08/08 03:28:31;;;;;;;2.55;0.90;;;;;;;;;;509366;29;1269;-87
2022/08/08 03:28:52;;;;;;;1.45;0.80;;;;;;;;;;509779;29;1470;-87